Time;durP1;ratioP1;P1;durP2;ratioP2;P2;SDS_P1;SDS_P2;PMS_P1;PMS_P2;Temp;Humidity;BMP_temperature;BMP_pressure;BME280_temperature;BME280_humidity;BME280_pressure;Samples;Min_cycle;Max_cycle;Signal;HPM_P1;HPM_P2
2022/09/03 00:00:24;;;;;;;30.05;24.25;;;;;;;18.61;100.00;99153.41;5031435;28;20021;-75
2022/09/03 00:03:04;;;;;;;29.33;22.45;;;;;;;18.67;100.00;99163.13;5015621;28;20044;-75
2022/09/03 00:05:50;;;;;;;29.80;22.38;;;;;;;18.66;100.00;99153.00;5029784;28;20116;-75
2022/09/03 00:08:29;;;;;;;28.85;20.40;;;;;;;18.90;100.00;99161.19;5013815;28;20087;-75
2022/09/03 00:11:19;;;;;;;32.15;20.17;;;;;;;19.06;100.00;99170.19;5035233;28;20021;-75
2022/09/03 00:13:53;;;;;;;28.30;20.70;;;;;;;19.17;99.74;99175.06;5001813;28;20021;-75
2022/09/03 00:16:22;;;;;;;22.02;17.85;;;;;;;19.29;98.42;99166.19;5035076;28;20043;-75
2022/09/03 00:18:53;;;;;;;24.17;18.20;;;;;;;19.39;97.38;99178.75;5035028;28;20472;-75
2022/09/03 00:21:48;;;;;;;22.77;17.38;;;;;;;19.35;96.74;99177.94;5015714;28;20134;-75
2022/09/03 00:24:19;;;;;;;35.13;18.80;;;;;;;19.44;96.66;99169.03;5031303;28;20119;-75
2022/09/03 00:26:56;;;;;;;27.13;18.35;;;;;;;19.55;95.90;99167.03;5033625;28;20474;-75
2022/09/03 00:29:28;;;;;;;24.40;17.25;;;;;;;19.62;95.34;99169.88;5034724;28;20033;-75
2022/09/03 00:32:02;;;;;;;29.85;19.95;;;;;;;19.63;95.77;99167.84;5034620;28;20025;-75
2022/09/03 00:34:28;;;;;;;25.02;19.60;;;;;;;19.63;95.30;99167.84;5030250;28;20033;-75
2022/09/03 00:36:53;;;;;;;28.90;18.92;;;;;;;19.61;94.71;99164.59;5034763;28;20029;-75
2022/09/03 00:39:22;;;;;;;26.08;18.85;;;;;;;19.25;96.34;99164.56;5016783;28;20462;-75
2022/09/03 00:42:11;;;;;;;27.95;19.23;;;;;;;19.19;97.49;99167.78;5034342;28;20046;-75
2022/09/03 00:45:01;;;;;;;31.92;19.30;;;;;;;19.42;96.82;99174.31;5015337;28;20117;-75
2022/09/03 00:47:44;;;;;;;21.23;17.83;;;;;;;19.56;95.10;99173.53;5016780;28;20451;-75
2022/09/03 00:50:40;;;;;;;28.17;18.98;;;;;;;19.63;93.65;99191.34;5033796;28;20100;-75
2022/09/03 00:53:27;;;;;;;23.58;16.67;;;;;;;19.76;92.79;99188.13;4997211;28;20124;-75
2022/09/03 00:56:31;;;;;;;20.02;16.48;;;;;;;19.71;92.93;99185.66;5016410;28;20052;-75
2022/09/03 00:59:07;;;;;;;22.33;18.20;;;;;;;19.71;92.85;99188.50;5016654;28;20079;-75
2022/09/03 01:01:56;;;;;;;25.35;17.77;;;;;;;19.71;93.08;99177.97;5033291;28;20069;-75
2022/09/03 01:04:30;;;;;;;22.73;16.85;;;;;;;19.64;94.01;99175.97;5033362;28;20045;-75
2022/09/03 01:07:02;;;;;;;23.10;16.52;;;;;;;19.69;93.76;99183.25;5016668;28;20547;-75
2022/09/03 01:09:39;;;;;;;26.45;18.60;;;;;;;19.46;94.17;99181.63;5033913;28;20052;-75
2022/09/03 01:12:14;;;;;;;29.95;19.60;;;;;;;19.04;96.73;99183.94;5015601;28;20030;-75
2022/09/03 01:14:58;;;;;;;24.27;19.10;;;;;;;18.94;97.60;99176.19;5015467;28;20037;-75
2022/09/03 01:17:56;;;;;;;35.00;20.75;;;;;;;18.80;97.94;99176.94;5016238;28;20033;-75
2022/09/03 01:20:50;;;;;;;25.52;19.77;;;;;;;18.74;98.29;99172.88;5013990;28;20025;-75
2022/09/03 01:23:34;;;;;;;23.98;18.55;;;;;;;18.74;98.63;99198.38;5024642;28;20393;-75
2022/09/03 01:26:28;;;;;;;25.95;19.42;;;;;;;18.50;100.00;99178.81;5032775;28;20033;-75
2022/09/03 01:29:10;;;;;;;28.83;21.60;;;;;;;18.47;100.00;99179.63;5015935;28;20037;-75
2022/09/03 01:31:50;;;;;;;25.15;18.83;;;;;;;18.51;100.00;99173.97;5032904;28;20033;-75
2022/09/03 01:34:30;;;;;;;28.57;20.23;;;;;;;18.47;100.00;99181.66;5014897;28;20079;-75
2022/09/03 01:37:13;;;;;;;30.58;20.83;;;;;;;18.47;100.00;99182.44;5012179;28;20038;-75
2022/09/03 01:39:51;;;;;;;27.48;20.45;;;;;;;18.40;100.00;99173.91;5013857;28;20184;-75
2022/09/03 01:42:38;;;;;;;25.67;19.38;;;;;;;18.33;100.00;99174.66;5012206;28;20084;-75
2022/09/03 01:45:26;;;;;;;30.33;20.20;;;;;;;18.33;100.00;99163.34;5014654;28;20474;-75
2022/09/03 01:48:21;;;;;;;26.50;18.75;;;;;;;18.37;100.00;99164.19;5033367;28;20033;-75
2022/09/03 01:50:46;;;;;;;22.40;17.98;;;;;;;18.34;100.00;99164.19;5031986;28;20392;-75
2022/09/03 01:53:24;;;;;;;26.73;19.42;;;;;;;18.31;100.00;99170.63;5014550;28;20099;-75
2022/09/03 01:55:56;;;;;;;29.42;19.42;;;;;;;18.30;100.00;99166.97;5014450;28;20029;-75
2022/09/03 01:58:48;;;;;;;26.63;20.48;;;;;;;18.23;100.00;99166.94;5033165;28;20040;-75
2022/09/03 02:01:45;;;;;;;22.40;18.63;;;;;;;18.19;100.00;99166.09;5032084;28;20483;-75
2022/09/03 02:04:23;;;;;;;26.13;18.52;;;;;;;18.22;100.00;99157.63;5023218;28;20472;-75
2022/09/03 02:06:56;;;;;;;27.48;19.73;;;;;;;18.14;100.00;99155.97;5033146;28;20132;-75
2022/09/03 02:09:22;;;;;;;26.63;18.23;;;;;;;18.13;100.00;99151.50;5032695;28;20083;-75
2022/09/03 02:12:14;;;;;;;23.38;18.90;;;;;;;18.24;100.00;99162.91;5029155;28;20033;-75
2022/09/03 02:14:39;;;;;;;25.63;19.60;;;;;;;18.43;99.72;99169.47;5031691;28;20373;-75
2022/09/03 02:17:06;;;;;;;29.45;18.55;;;;;;;18.48;98.50;99163.44;5031205;28;20030;-75
2022/09/03 02:19:33;;;;;;;23.40;17.15;;;;;;;18.61;97.70;99167.56;5032948;28;20087;-75
2022/09/03 02:21:59;;;;;;;20.70;15.40;;;;;;;18.81;96.63;99175.72;5029329;28;20029;-75
2022/09/03 02:24:25;;;;;;;21.17;15.35;;;;;;;18.97;94.34;99166.09;5030679;28;20033;-75
2022/09/03 02:26:52;;;;;;;18.27;15.25;;;;;;;19.12;93.52;99175.44;5014763;28;20052;-75
2022/09/03 02:29:18;;;;;;;17.50;13.90;;;;;;;19.21;92.86;99188.03;5014766;28;20094;-75
2022/09/03 02:31:44;;;;;;;20.08;15.68;;;;;;;19.22;92.17;99184.00;5013482;28;20448;-75
2022/09/03 02:34:10;;;;;;;21.35;16.27;;;;;;;19.20;91.69;99192.09;5028901;28;20033;-75
2022/09/03 02:36:39;;;;;;;19.70;15.43;;;;;;;19.20;91.74;99188.44;5014911;28;20033;-75
2022/09/03 02:39:05;;;;;;;32.92;16.48;;;;;;;19.06;92.09;99181.50;5032328;28;20021;-75
2022/09/03 02:41:32;;;;;;;27.48;16.52;;;;;;;18.85;93.17;99182.22;5028172;28;20116;-75
2022/09/03 02:44:37;;;;;;;28.27;16.60;;;;;;;18.71;93.42;99190.66;5027757;28;20037;-75
2022/09/03 02:47:05;;;;;;;24.42;16.80;;;;;;;18.66;93.31;99180.53;5014054;28;20037;-75
2022/09/03 02:49:31;;;;;;;22.42;16.17;;;;;;;18.47;94.51;99185.28;5030921;28;20519;-75
2022/09/03 02:52:00;;;;;;;40.03;17.42;;;;;;;18.49;94.76;99176.41;5011730;28;20036;-75
2022/09/03 02:54:26;;;;;;;21.85;15.32;;;;;;;18.37;94.89;99175.53;5013931;28;20034;-75
2022/09/03 02:56:51;;;;;;;22.83;16.77;;;;;;;18.32;95.72;99187.19;5032428;28;20073;-75
2022/09/03 02:59:17;;;;;;;24.38;14.90;;;;;;;18.28;95.26;99180.72;5014301;28;20550;-75
2022/09/03 03:01:42;;;;;;;24.50;15.82;;;;;;;18.33;95.32;99174.66;5030980;28;20026;-75
2022/09/03 03:04:08;;;;;;;21.30;15.25;;;;;;;18.29;95.15;99178.72;5010338;28;20018;-75
2022/09/03 03:06:33;;;;;;;19.75;15.05;;;;;;;18.31;95.22;99160.09;5020150;28;20030;-75
2022/09/03 03:09:00;;;;;;;21.45;15.10;;;;;;;18.51;94.20;99182.47;5031936;28;20026;-76
2022/09/03 03:11:26;;;;;;;25.05;14.63;;;;;;;18.49;93.43;99171.53;5031528;28;20052;-75
2022/09/03 03:13:51;;;;;;;20.75;16.25;;;;;;;18.47;93.53;99184.47;5031252;28;20045;-76
2022/09/03 03:16:17;;;;;;;18.30;13.40;;;;;;;18.43;93.72;99186.47;5014515;28;20369;-75
2022/09/03 03:18:46;;;;;;;20.40;15.90;;;;;;;18.41;94.07;99174.72;5014205;28;20083;-75
2022/09/03 03:21:14;;;;;;;19.48;15.55;;;;;;;18.23;94.44;99173.41;5012595;28;20029;-75
2022/09/03 03:23:39;;;;;;;20.70;15.68;;;;;;;18.13;95.11;99182.63;5013251;28;20025;-75
2022/09/03 03:26:17;;;;;;;25.20;14.65;;;;;;;18.14;94.92;99178.59;5030786;28;20036;-75
2022/09/03 03:28:43;;;;;;;24.55;15.45;;;;;;;18.14;95.28;99184.25;5014143;28;20028;-75
2022/09/03 03:31:10;;;;;;;19.90;14.23;;;;;;;18.19;95.47;99185.91;5031781;28;20384;-75
2022/09/03 03:33:37;;;;;;;21.60;17.00;;;;;;;17.96;95.25;99187.75;5013651;28;20527;-75
2022/09/03 03:36:08;;;;;;;20.60;15.00;;;;;;;17.83;96.31;99192.88;5027688;28;20025;-75
2022/09/03 03:38:35;;;;;;;21.25;16.67;;;;;;;17.63;98.01;99183.03;5031674;28;20064;-75
2022/09/03 03:41:15;;;;;;;21.70;14.85;;;;;;;17.57;98.10;99193.06;5013724;28;20032;-75
2022/09/03 03:43:41;;;;;;;22.13;15.38;;;;;;;17.54;99.09;99187.00;5031500;28;20067;-75
2022/09/03 03:46:07;;;;;;;28.33;16.13;;;;;;;17.53;98.82;99191.03;5017018;28;20195;-75
2022/09/03 03:48:32;;;;;;;22.90;15.43;;;;;;;17.46;99.38;99193.78;5034300;28;20404;-75
2022/09/03 03:51:05;;;;;;;21.73;15.68;;;;;;;17.39;99.94;99190.88;5034823;28;20049;-75
2022/09/03 03:53:32;;;;;;;26.92;15.02;;;;;;;17.23;100.00;99199.59;5016929;28;20029;-75
2022/09/03 03:56:00;;;;;;;21.30;14.07;;;;;;;17.20;100.00;99201.19;5016668;28;20064;-75
2022/09/03 03:58:28;;;;;;;20.02;14.52;;;;;;;17.19;100.00;99201.56;5035512;28;20408;-75
2022/09/03 04:00:54;;;;;;;20.17;15.10;;;;;;;17.18;100.00;99203.59;5034681;28;20491;-75
2022/09/03 04:03:19;;;;;;;22.00;14.48;;;;;;;17.18;100.00;99197.09;5033737;28;20057;-75
2022/09/03 04:05:59;;;;;;;23.08;13.52;;;;;;;17.23;100.00;99200.41;5035234;28;20104;-75
2022/09/03 04:08:28;;;;;;;23.58;14.68;;;;;;;17.18;100.00;99206.41;5017315;28;20112;-75
2022/09/03 04:10:58;;;;;;;22.48;14.95;;;;;;;17.21;100.00;99210.50;5017252;28;20025;-75
2022/09/03 04:13:27;;;;;;;;;;;;;;;17.22;100.00;99212.09;5015469;28;20484;-75
2022/09/03 04:15:59;;;;;;;21.83;13.25;;;;;;;17.16;100.00;99214.47;5016265;28;19994;-75
2022/09/03 04:18:25;;;;;;;19.83;13.95;;;;;;;17.20;100.00;99211.69;5033746;28;20017;-75
2022/09/03 04:20:50;;;;;;;23.23;14.13;;;;;;;17.21;100.00;99211.28;5033865;28;20021;-75
2022/09/03 04:23:16;;;;;;;23.20;13.70;;;;;;;17.20;100.00;99206.84;5016360;28;20424;-75
2022/09/03 04:25:42;;;;;;;19.60;13.40;;;;;;;17.37;100.00;99215.88;5034123;28;20137;-75
2022/09/03 04:28:07;;;;;;;22.30;14.18;;;;;;;17.26;100.00;99198.81;5017193;28;20100;-75
2022/09/03 04:30:33;;;;;;;23.20;14.38;;;;;;;17.29;100.00;99217.81;5034884;28;20037;-75
2022/09/03 04:32:58;;;;;;;20.80;14.70;;;;;;;17.30;100.00;99204.53;5016211;28;20021;-75
2022/09/03 04:35:30;;;;;;;24.35;15.55;;;;;;;17.36;100.00;99217.09;5031074;28;20049;-75
2022/09/03 04:37:56;;;;;;;23.83;15.40;;;;;;;17.43;100.00;99214.34;5016985;28;20108;-73
2022/09/03 04:40:22;;;;;;;20.02;14.18;;;;;;;17.43;100.00;99208.69;5034666;28;20056;-75
2022/09/03 04:42:47;;;;;;;19.73;13.32;;;;;;;17.50;100.00;99214.44;5015643;28;20044;-74
2022/09/03 04:45:17;;;;;;;26.20;13.40;;;;;;;17.56;100.00;99217.72;5032436;28;20021;-74
2022/09/03 04:47:45;;;;;;;21.80;13.55;;;;;;;17.58;100.00;99220.97;5016410;28;20503;-73
2022/09/03 04:50:12;;;;;;;36.67;13.57;;;;;;;17.50;100.00;99219.25;5016768;28;20145;-73
2022/09/03 04:52:37;;;;;;;25.33;12.88;;;;;;;17.57;100.00;99219.34;5032854;28;20112;-73
2022/09/03 04:55:04;;;;;;;31.77;12.77;;;;;;;17.65;100.00;99225.88;5012923;28;20112;-73
2022/09/03 04:57:34;;;;;;;27.77;12.77;;;;;;;17.59;99.91;99224.59;5033625;28;20080;-73
2022/09/03 04:59:59;;;;;;;25.00;12.38;;;;;;;17.63;99.90;99231.91;5033617;28;20160;-74
2022/09/03 05:02:25;;;;;;;25.58;12.68;;;;;;;17.57;99.92;99227.81;5034029;28;20057;-74
2022/09/03 05:04:51;;;;;;;21.27;12.73;;;;;;;17.66;100.00;99228.28;5032283;28;20546;-74
2022/09/03 05:07:18;;;;;;;23.48;13.02;;;;;;;17.71;100.00;99235.63;5014978;28;20028;-80
2022/09/03 05:09:43;;;;;;;19.02;11.93;;;;;;;17.85;99.94;99245.44;5034394;28;20017;-78
2022/09/03 05:12:09;;;;;;;25.67;13.48;;;;;;;17.96;100.00;99247.16;5034290;28;20085;-77
2022/09/03 05:14:35;;;;;;;27.88;11.73;;;;;;;18.11;99.35;99250.13;5031877;28;20021;-70
2022/09/03 05:17:00;;;;;;;18.48;13.02;;;;;;;18.22;98.67;99242.56;5012556;28;20022;-70
2022/09/03 05:19:26;;;;;;;19.48;11.02;;;;;;;18.20;98.34;99239.31;5012100;28;20025;-70
2022/09/03 05:21:51;;;;;;;23.13;13.02;;;;;;;18.43;97.91;99252.41;5023402;28;20372;-72
2022/09/03 05:24:17;;;;;;;19.20;12.02;;;;;;;18.50;96.84;99243.94;5025747;28;20026;-76
2022/09/03 05:26:43;;;;;;;21.20;12.00;;;;;;;18.69;95.95;99258.22;5018946;28;20064;-72
2022/09/03 05:29:08;;;;;;;17.45;11.52;;;;;;;18.76;95.33;99256.25;5008431;28;20026;-73
2022/09/03 05:31:37;;;;;;;15.73;10.90;;;;;;;18.85;94.98;99261.56;5012781;28;20090;-73
2022/09/03 05:34:04;;;;;;;16.33;10.53;;;;;;;18.84;93.82;99265.59;5014102;28;20029;-76
2022/09/03 05:36:36;;;;;;;14.45;11.07;;;;;;;19.00;94.00;99264.50;5015076;28;20033;-74
2022/09/03 05:39:03;;;;;;;21.08;12.30;;;;;;;19.03;91.85;99269.34;5028082;28;20022;-75
2022/09/03 05:41:29;;;;;;;16.45;11.07;;;;;;;19.08;91.65;99263.31;5028446;28;20025;-73
2022/09/03 05:43:57;;;;;;;21.05;11.85;;;;;;;19.14;91.65;99273.03;5031712;28;20032;-70
2022/09/03 05:46:30;;;;;;;19.20;10.52;;;;;;;19.28;90.76;99262.97;5029681;28;20061;-72
2022/09/03 05:49:00;;;;;;;14.98;10.38;;;;;;;19.38;90.11;99269.91;5015930;28;20056;-75
2022/09/03 05:51:27;;;;;;;16.42;10.30;;;;;;;19.44;90.46;99259.78;5028913;28;20120;-74
2022/09/03 05:53:54;;;;;;;16.17;10.73;;;;;;;19.60;90.06;99256.59;5029435;28;20033;-86
2022/09/03 05:56:23;;;;;;;17.00;10.23;;;;;;;19.75;89.35;99272.41;5012444;28;20490;-75
2022/09/03 05:58:51;;;;;;;19.27;11.05;;;;;;;19.85;88.68;99275.69;5033097;28;20040;-75
2022/09/03 06:01:21;;;;;;;16.52;10.32;;;;;;;19.92;87.34;99275.69;5030060;28;20099;-76
2022/09/03 06:03:53;;;;;;;12.50;10.05;;;;;;;20.04;86.88;99275.34;5027979;28;20396;-75
2022/09/03 06:06:24;;;;;;;13.00;8.88;;;;;;;20.04;85.54;99261.13;5031299;28;20071;-80
2022/09/03 06:09:10;;;;;;;17.48;10.02;;;;;;;20.29;86.03;99270.84;5032818;28;20025;-76
2022/09/03 06:11:37;;;;;;;13.15;7.82;;;;;;;20.36;82.09;99264.34;5013416;28;20041;-73
2022/09/03 06:14:06;;;;;;;13.82;8.13;;;;;;;20.50;82.42;99270.00;5031598;28;20079;-75
2022/09/03 06:16:34;;;;;;;11.57;8.60;;;;;;;20.58;84.03;99273.69;5030172;28;20091;-73
2022/09/03 06:19:00;;;;;;;12.70;9.50;;;;;;;20.68;83.27;99272.03;5030264;28;20034;-76
2022/09/03 06:21:26;;;;;;;14.52;7.43;;;;;;;20.62;82.04;99272.44;5013420;28;20586;-72
2022/09/03 06:23:55;;;;;;;9.98;8.07;;;;;;;20.76;81.32;99274.44;5028960;28;20038;-74
2022/09/03 06:26:21;;;;;;;12.82;9.23;;;;;;;20.81;79.22;99267.56;5003236;28;20091;-74
2022/09/03 06:28:48;;;;;;;15.32;8.45;;;;;;;20.88;78.91;99267.56;5027265;28;20029;-73
2022/09/03 06:31:16;;;;;;;12.85;8.48;;;;;;;21.01;77.86;99269.94;5030978;28;20022;-75
2022/09/03 06:33:42;;;;;;;25.60;15.75;;;;;;;21.04;76.48;99269.91;5017288;28;20464;-71
2022/09/03 06:36:10;;;;;;;14.13;10.38;;;;;;;21.11;78.18;99271.91;5026437;28;20033;-74
2022/09/03 06:38:37;;;;;;;21.50;8.93;;;;;;;21.32;78.91;99279.56;5014294;28;20064;-73
2022/09/03 06:41:06;;;;;;;12.77;7.88;;;;;;;21.44;75.96;99278.28;5015286;28;20025;-74
2022/09/03 06:43:36;;;;;;;18.80;11.88;;;;;;;21.42;76.21;99274.25;5028204;28;20543;-74
2022/09/03 06:46:09;;;;;;;12.57;8.63;;;;;;;21.52;75.38;99278.25;5009281;28;20025;-77
2022/09/03 06:48:35;;;;;;;18.25;11.30;;;;;;;21.55;74.18;99278.22;5028064;28;20506;-76
2022/09/03 06:51:08;;;;;;;12.00;8.38;;;;;;;21.68;74.31;99272.88;5030157;28;20488;-76
2022/09/03 06:53:36;;;;;;;11.18;8.23;;;;;;;21.72;73.46;99272.88;5013613;28;20101;-76
2022/09/03 06:56:08;;;;;;;11.00;7.38;;;;;;;21.78;73.49;99284.63;5027335;28;20025;-79
2022/09/03 06:58:42;;;;;;;13.88;10.82;;;;;;;21.88;72.96;99283.75;5011348;28;20125;-77
2022/09/03 07:01:19;;;;;;;10.00;7.65;;;;;;;21.93;73.75;99283.28;5027984;28;20033;-75
2022/09/03 07:03:47;;;;;;;14.70;8.73;;;;;;;22.10;73.35;99280.75;5023152;28;20025;-76
2022/09/03 07:06:17;;;;;;;12.18;8.00;;;;;;;22.08;72.31;99277.47;5024698;28;20035;-79
2022/09/03 07:08:43;;;;;;;10.80;5.90;;;;;;;22.20;70.17;99284.72;5009923;28;20535;-73
2022/09/03 07:11:12;;;;;;;8.32;5.82;;;;;;;22.10;68.53;99286.44;5028320;28;20033;-77
2022/09/03 07:13:41;;;;;;;10.50;8.27;;;;;;;22.33;70.70;99297.22;5010514;28;20496;-73
2022/09/03 07:16:18;;;;;;;7.60;6.63;;;;;;;22.25;68.90;99293.63;5028355;28;20049;-73
2022/09/03 07:18:45;;;;;;;12.30;7.90;;;;;;;22.35;69.60;99296.81;5009574;28;20534;-71
2022/09/03 07:21:13;;;;;;;13.45;5.75;;;;;;;22.40;68.47;99299.19;5024049;28;20036;-76
2022/09/03 07:23:39;;;;;;;7.55;6.45;;;;;;;22.48;69.35;99297.94;5026265;28;20037;-74
2022/09/03 07:26:08;;;;;;;10.80;6.97;;;;;;;22.54;69.13;99295.44;5024672;28;20412;-76
2022/09/03 07:28:35;;;;;;;12.43;6.10;;;;;;;22.48;67.40;99302.78;5012130;28;20028;-72
2022/09/03 07:31:18;;;;;;;7.72;5.65;;;;;;;22.48;67.29;99303.66;5026302;28;20029;-73
2022/09/03 07:33:45;;;;;;;12.70;5.72;;;;;;;22.38;68.88;99307.38;5003949;28;20570;-74
2022/09/03 07:36:14;;;;;;;11.00;7.28;;;;;;;22.54;68.35;99290.53;5026620;28;20087;-73
2022/09/03 07:38:43;;;;;;;7.22;6.10;;;;;;;22.54;67.69;99298.31;5008713;28;20030;-72
2022/09/03 07:41:10;;;;;;;11.05;5.50;;;;;;;22.57;66.67;99309.69;5008509;28;20021;-73
2022/09/03 07:43:45;;;;;;;15.95;6.65;;;;;;;22.70;68.19;99312.78;5018319;28;20136;-72
2022/09/03 07:46:17;;;;;;;12.48;6.78;;;;;;;22.70;67.40;99294.91;5029355;28;20034;-71
2022/09/03 07:48:45;;;;;;;10.23;5.85;;;;;;;22.94;66.92;99315.00;5027507;28;20049;-73
2022/09/03 07:51:11;;;;;;;9.63;6.45;;;;;;;22.87;67.41;99321.59;5024756;28;20083;-74
2022/09/03 07:53:37;;;;;;;12.60;6.63;;;;;;;23.06;68.76;99320.16;5006045;28;20029;-76
2022/09/03 07:56:07;;;;;;;8.75;5.65;;;;;;;23.28;66.83;99322.78;5015494;28;20468;-73
2022/09/03 07:58:34;;;;;;;8.18;6.38;;;;;;;23.46;66.11;99314.00;5028004;28;20136;-73
2022/09/03 08:01:07;;;;;;;11.25;7.80;;;;;;;23.52;66.62;99315.16;5028056;28;20036;-76
2022/09/03 08:03:34;;;;;;;8.63;7.03;;;;;;;23.52;65.11;99318.00;5023483;28;20030;-72
2022/09/03 08:06:06;;;;;;;8.82;6.15;;;;;;;23.64;64.77;99304.41;5025469;28;20033;-75
2022/09/03 08:08:35;;;;;;;8.98;5.90;;;;;;;23.85;64.57;99303.28;5018495;28;20034;-73
2022/09/03 08:11:10;;;;;;;10.27;6.45;;;;;;;23.91;63.94;99304.44;5027080;28;20032;-74
2022/09/03 08:13:41;;;;;;;29.52;8.25;;;;;;;23.87;63.10;99302.84;5008074;28;20087;-77
2022/09/03 08:16:08;;;;;;;13.70;7.50;;;;;;;23.89;63.76;99298.34;5029228;28;20033;-72
2022/09/03 08:18:37;;;;;;;10.38;6.55;;;;;;;24.02;62.92;99292.03;5010522;28;20455;-81
2022/09/03 08:21:15;;;;;;;9.50;7.43;;;;;;;24.05;63.60;99297.69;5012514;28;20060;-83
2022/09/03 08:23:46;;;;;;;9.43;7.68;;;;;;;24.18;60.72;99288.53;5010744;28;20518;-81
2022/09/03 08:26:12;;;;;;;13.70;7.82;;;;;;;24.00;59.89;99275.31;5012635;28;20037;-72
2022/09/03 08:28:38;;;;;;;9.13;6.75;;;;;;;24.09;61.18;99300.50;5027861;28;20108;-73
2022/09/03 08:31:25;;;;;;;14.48;8.30;;;;;;;23.96;61.81;99300.28;5013403;28;20068;-75
2022/09/03 08:33:53;;;;;;;10.23;7.50;;;;;;;23.83;61.57;99300.06;5018715;28;20037;-74
2022/09/03 08:36:22;;;;;;;9.38;7.55;;;;;;;23.88;62.79;99293.84;5021312;28;20132;-72
2022/09/03 08:38:53;;;;;;;17.63;8.73;;;;;;;23.98;59.98;99278.59;5016061;28;20063;-77
2022/09/03 08:41:32;;;;;;;10.82;7.20;;;;;;;24.21;61.88;99281.97;5013744;28;20079;-71
2022/09/03 08:44:14;;;;;;;12.88;7.25;;;;;;;24.30;60.06;99270.75;4976380;28;20042;-73
2022/09/03 08:46:57;;;;;;;8.43;6.63;;;;;;;24.46;60.01;99272.94;4987938;28;20030;-73
2022/09/03 08:49:40;;;;;;;9.77;7.85;;;;;;;24.70;60.08;99275.78;4992093;28;20048;-74
2022/09/03 08:52:19;;;;;;;12.38;6.80;;;;;;;24.84;58.89;99259.63;4993430;28;20500;-73
2022/09/03 08:54:45;;;;;;;10.02;7.60;;;;;;;25.04;58.15;99269.03;4978183;28;20023;-76
2022/09/03 08:57:13;;;;;;;12.13;6.82;;;;;;;24.92;56.31;99269.69;4991627;28;20026;-73
2022/09/03 08:59:38;;;;;;;9.40;7.38;;;;;;;24.88;58.51;99261.16;4994946;28;20026;-73
2022/09/03 09:02:21;;;;;;;9.27;6.32;;;;;;;24.92;57.79;99269.69;4994818;28;20030;-73
2022/09/03 09:05:10;;;;;;;13.38;8.05;;;;;;;25.00;57.29;99276.06;5008640;28;20076;-73
2022/09/03 09:07:38;;;;;;;9.75;6.60;;;;;;;25.21;57.70;99277.66;4991947;28;20070;-75
2022/09/03 09:10:45;;;;;;;8.10;6.22;;;;;;;25.16;57.54;99273.28;5004338;28;20041;-73
2022/09/03 09:13:21;;;;;;;10.90;7.10;;;;;;;25.44;57.15;99276.78;4931143;29;20046;-75
2022/09/03 09:16:09;;;;;;;11.23;7.35;;;;;;;25.35;55.88;99273.72;4933030;29;20032;-75
2022/09/03 09:18:34;;;;;;;10.57;7.43;;;;;;;25.11;56.88;99278.72;4968047;28;20034;-71
2022/09/03 09:21:13;;;;;;;8.15;6.75;;;;;;;25.21;56.93;99271.94;4988247;28;20104;-74
2022/09/03 09:23:49;;;;;;;13.20;8.95;;;;;;;25.26;56.21;99282.06;4979790;28;20044;-75
2022/09/03 09:26:17;;;;;;;11.25;8.23;;;;;;;25.41;56.99;99271.97;4993367;28;20037;-75
2022/09/03 09:28:56;;;;;;;11.80;8.13;;;;;;;25.54;56.40;99272.09;4990735;28;20527;-77
2022/09/03 09:31:22;;;;;;;8.98;7.38;;;;;;;25.06;54.49;99271.47;5009277;28;20461;-75
2022/09/03 09:33:48;;;;;;;13.88;8.60;;;;;;;25.42;57.74;99267.03;4998174;28;20170;-77
2022/09/03 09:36:18;;;;;;;8.77;7.78;;;;;;;25.71;55.83;99275.00;5003239;28;20049;-76
2022/09/03 09:38:45;;;;;;;;;;;;;;;25.99;55.42;99270.66;4991795;28;20504;-74
2022/09/03 09:41:19;;;;;;;11.68;7.50;;;;;;;25.93;54.68;99281.81;4988905;28;19910;-77
2022/09/03 09:43:46;;;;;;;14.55;9.10;;;;;;;26.05;55.35;99277.47;5010517;28;20425;-76
2022/09/03 09:46:24;;;;;;;10.95;8.38;;;;;;;26.02;53.31;99278.38;5027916;28;20045;-74
2022/09/03 09:48:56;;;;;;;11.77;7.55;;;;;;;26.05;53.10;99270.91;5032427;28;20036;-77
2022/09/03 09:51:35;;;;;;;12.38;8.15;;;;;;;26.11;54.11;99260.53;5014547;28;20021;-74
2022/09/03 09:54:05;;;;;;;14.68;7.75;;;;;;;26.18;52.61;99260.38;5028427;28;20040;-83
2022/09/03 09:56:30;;;;;;;7.30;6.40;;;;;;;26.23;51.23;99261.13;5011791;28;20041;-78
2022/09/03 09:59:07;;;;;;;8.93;7.13;;;;;;;26.31;51.84;99265.41;5030139;28;20029;-79
2022/09/03 10:01:37;;;;;;;10.25;6.93;;;;;;;26.32;52.94;99261.28;5008799;28;20036;-78
2022/09/03 10:04:24;;;;;;;9.82;7.72;;;;;;;26.48;52.39;99267.00;5030281;28;20055;-79
2022/09/03 10:07:04;;;;;;;14.48;7.43;;;;;;;26.57;52.79;99256.97;5012073;28;20033;-80
2022/09/03 10:09:32;;;;;;;13.15;7.80;;;;;;;26.77;51.62;99266.22;5028922;28;20025;-79
2022/09/03 10:12:18;;;;;;;12.00;8.45;;;;;;;26.79;50.80;99254.31;5009886;28;20029;-81
2022/09/03 10:15:02;;;;;;;9.30;7.50;;;;;;;26.88;50.27;99254.50;5011625;28;20079;-79
2022/09/03 10:17:31;;;;;;;9.98;7.45;;;;;;;27.04;50.17;99245.03;4999071;28;20488;-80
2022/09/03 10:20:26;;;;;;;10.93;7.70;;;;;;;27.01;48.90;99253.72;5023430;28;20040;-76
2022/09/03 10:23:14;;;;;;;9.73;7.25;;;;;;;26.81;49.60;99251.78;5028678;28;20060;-71
2022/09/03 10:25:52;;;;;;;10.07;7.07;;;;;;;26.39;50.08;99246.75;5011934;28;20083;-73
2022/09/03 10:28:24;;;;;;;9.68;7.07;;;;;;;26.59;50.79;99251.56;5030795;28;20424;-74
2022/09/03 10:30:57;;;;;;;9.10;7.20;;;;;;;26.90;49.33;99249.09;5027898;28;20021;-78
2022/09/03 10:33:28;;;;;;;9.60;7.40;;;;;;;27.05;49.69;99255.25;5025147;28;20026;-76
2022/09/03 10:36:39;;;;;;;8.80;6.78;;;;;;;27.10;48.56;99244.44;5028013;28;20013;-76
2022/09/03 10:39:14;;;;;;;11.82;7.57;;;;;;;27.28;48.30;99255.41;4998415;28;20120;-81
2022/09/03 10:42:08;;;;;;;13.48;7.57;;;;;;;27.47;46.03;99242.13;5010633;28;20026;-79
2022/09/03 10:44:51;;;;;;;9.00;6.65;;;;;;;27.84;46.17;99254.09;5029488;28;20026;-75
2022/09/03 10:47:54;;;;;;;12.65;6.22;;;;;;;27.78;45.62;99249.41;5029512;28;20036;-74
2022/09/03 10:50:28;;;;;;;5.90;5.25;;;;;;;27.35;45.30;99254.38;5029660;28;20435;-75
2022/09/03 10:53:11;;;;;;;11.90;7.32;;;;;;;27.37;45.54;99257.59;5028723;28;20029;-75
2022/09/03 10:56:00;;;;;;;6.35;5.72;;;;;;;27.23;46.41;99248.16;5006709;28;20087;-73
2022/09/03 10:58:38;;;;;;;3.60;3.05;;;;;;;27.11;43.91;99248.94;4997656;28;20471;-73
2022/09/03 11:01:22;;;;;;;6.65;4.38;;;;;;;27.31;44.86;99260.22;5027419;28;20029;-71
2022/09/03 11:04:16;;;;;;;7.32;4.13;;;;;;;27.51;44.22;99260.03;5025125;28;20484;-75
2022/09/03 11:06:52;;;;;;;6.65;4.78;;;;;;;27.42;44.71;99252.09;5021556;28;20503;-79
2022/09/03 11:09:21;;;;;;;3.70;3.38;;;;;;;27.44;45.02;99251.66;5008857;28;20062;-72
2022/09/03 11:11:52;;;;;;;7.72;3.92;;;;;;;27.54;44.22;99244.81;5029474;28;20030;-78
2022/09/03 11:14:55;;;;;;;6.65;4.90;;;;;;;27.46;44.17;99260.59;5030284;28;20025;-76
2022/09/03 11:17:32;;;;;;;6.78;4.53;;;;;;;27.63;43.55;99240.44;5011684;28;20033;-79
2022/09/03 11:20:07;;;;;;;7.88;4.50;;;;;;;27.69;44.62;99250.88;5014728;28;20029;-76
2022/09/03 11:22:33;;;;;;;4.78;4.28;;;;;;;27.77;44.47;99250.66;5029768;28;20405;-75
2022/09/03 11:25:01;;;;;;;5.03;4.50;;;;;;;27.82;44.56;99244.34;5028886;28;20163;-78
2022/09/03 11:27:49;;;;;;;4.40;4.00;;;;;;;27.78;44.10;99255.16;5025514;28;20021;-77
2022/09/03 11:30:23;;;;;;;5.20;3.22;;;;;;;27.63;43.71;99244.13;5013617;28;20033;-81
2022/09/03 11:32:59;;;;;;;8.23;3.78;;;;;;;27.71;43.32;99236.06;5001041;28;20029;-79
2022/09/03 11:35:39;;;;;;;6.20;2.72;;;;;;;27.85;42.16;99240.56;5010685;28;20108;-78
2022/09/03 11:38:14;;;;;;;6.10;3.00;;;;;;;27.75;42.65;99242.50;5024275;28;20029;-79
2022/09/03 11:41:15;;;;;;;2.28;1.92;;;;;;;27.64;42.72;99237.09;5027905;28;20065;-79
2022/09/03 11:43:42;;;;;;;3.85;2.50;;;;;;;27.40;43.05;99236.59;5025854;28;20049;-78
2022/09/03 11:46:20;;;;;;;2.92;2.03;;;;;;;27.32;42.85;99245.44;5025663;28;20033;-79
2022/09/03 11:48:48;;;;;;;2.58;2.28;;;;;;;27.64;41.95;99239.97;5011732;28;20079;-79